sensor_id;sensor_type;location;lat;lon;timestamp;pressure;altitude;pressure_sealevel;temperature;humidity
51999;BME280;38015;50.924;11.598;2023-01-28T00:01:44;100304.15;;;21.06;25.65
51999;BME280;38015;50.924;11.598;2023-01-28T00:04:14;100305.57;;;21.17;25.46
51999;BME280;38015;50.924;11.598;2023-01-28T00:06:44;100308.07;;;21.04;25.69
51999;BME280;38015;50.924;11.598;2023-01-28T00:09:15;100307.37;;;21.13;25.52
51999;BME280;38015;50.924;11.598;2023-01-28T00:11:46;100306.17;;;21.14;25.52
51999;BME280;38015;50.924;11.598;2023-01-28T00:14:16;100305.85;;;21.18;25.45
51999;BME280;38015;50.924;11.598;2023-01-28T00:16:47;100302.92;;;21.17;25.45
51999;BME280;38015;50.924;11.598;2023-01-28T00:19:17;100304.78;;;21.12;25.53
51999;BME280;38015;50.924;11.598;2023-01-28T00:21:48;100300.02;;;20.97;25.79
51999;BME280;38015;50.924;11.598;2023-01-28T00:24:18;100300.22;;;21.01;25.69
51999;BME280;38015;50.924;11.598;2023-01-28T00:26:49;100301.79;;;20.99;25.77
51999;BME280;38015;50.924;11.598;2023-01-28T00:29:19;100299.93;;;21.13;25.51
51999;BME280;38015;50.924;11.598;2023-01-28T00:31:50;100300.95;;;21.07;25.61
51999;BME280;38015;50.924;11.598;2023-01-28T00:34:20;100304.57;;;21.14;25.49
51999;BME280;38015;50.924;11.598;2023-01-28T00:36:51;100304.26;;;21.19;25.40
51999;BME280;38015;50.924;11.598;2023-01-28T00:39:22;100302.38;;;21.07;25.59
51999;BME280;38015;50.924;11.598;2023-01-28T00:41:52;100300.76;;;21.14;25.50
51999;BME280;38015;50.924;11.598;2023-01-28T00:44:22;100297.69;;;21.21;25.36
51999;BME280;38015;50.924;11.598;2023-01-28T00:46:55;100299.29;;;21.01;25.68
51999;BME280;38015;50.924;11.598;2023-01-28T00:49:23;100302.46;;;21.17;25.44
51999;BME280;38015;50.924;11.598;2023-01-28T00:51:56;100303.90;;;20.99;25.72
51999;BME280;38015;50.924;11.598;2023-01-28T00:54:25;100303.43;;;21.12;25.52
51999;BME280;38015;50.924;11.598;2023-01-28T00:56:55;100302.55;;;21.07;25.59
51999;BME280;38015;50.924;11.598;2023-01-28T00:59:25;100303.81;;;21.12;25.53
51999;BME280;38015;50.924;11.598;2023-01-28T01:01:56;100304.98;;;21.06;25.60
51999;BME280;38015;50.924;11.598;2023-01-28T01:04:27;100308.80;;;21.10;25.55
51999;BME280;38015;50.924;11.598;2023-01-28T01:06:57;100308.21;;;21.03;25.66
51999;BME280;38015;50.924;11.598;2023-01-28T01:09:27;100303.13;;;21.14;25.48
51999;BME280;38015;50.924;11.598;2023-01-28T01:11:58;100308.08;;;21.18;25.42
51999;BME280;38015;50.924;11.598;2023-01-28T01:14:29;100308.10;;;21.08;25.56
51999;BME280;38015;50.924;11.598;2023-01-28T01:17:00;100310.63;;;21.07;25.55
51999;BME280;38015;50.924;11.598;2023-01-28T01:19:30;100314.51;;;21.17;25.40
51999;BME280;38015;50.924;11.598;2023-01-28T01:22:00;100313.04;;;21.05;25.61
51999;BME280;38015;50.924;11.598;2023-01-28T01:24:31;100314.90;;;20.85;25.93
51999;BME280;38015;50.924;11.598;2023-01-28T01:27:01;100315.18;;;21.00;25.73
51999;BME280;38015;50.924;11.598;2023-01-28T01:29:33;100313.97;;;21.10;25.55
51999;BME280;38015;50.924;11.598;2023-01-28T01:32:03;100317.02;;;21.09;25.53
51999;BME280;38015;50.924;11.598;2023-01-28T01:34:33;100320.03;;;21.07;25.56
51999;BME280;38015;50.924;11.598;2023-01-28T01:37:03;100318.06;;;20.88;25.89
51999;BME280;38015;50.924;11.598;2023-01-28T01:39:34;100314.12;;;21.04;25.62
51999;BME280;38015;50.924;11.598;2023-01-28T01:42:04;100317.82;;;20.95;25.73
51999;BME280;38015;50.924;11.598;2023-01-28T01:47:07;100316.11;;;20.86;25.90
51999;BME280;38015;50.924;11.598;2023-01-28T01:49:36;100314.34;;;21.17;25.40
51999;BME280;38015;50.924;11.598;2023-01-28T01:52:10;100316.06;;;21.21;25.31
51999;BME280;38015;50.924;11.598;2023-01-28T01:54:38;100320.28;;;21.12;25.44
51999;BME280;38015;50.924;11.598;2023-01-28T01:57:09;100323.62;;;21.18;25.37
51999;BME280;38015;50.924;11.598;2023-01-28T01:59:39;100326.15;;;21.08;25.51
51999;BME280;38015;50.924;11.598;2023-01-28T02:02:10;100329.36;;;21.20;25.32
51999;BME280;38015;50.924;11.598;2023-01-28T02:04:41;100330.96;;;21.14;25.41
51999;BME280;38015;50.924;11.598;2023-01-28T02:07:12;100332.82;;;20.95;25.71
51999;BME280;38015;50.924;11.598;2023-01-28T02:09:40;100333.81;;;20.99;25.64
51999;BME280;38015;50.924;11.598;2023-01-28T02:12:15;100334.96;;;21.01;25.63
51999;BME280;38015;50.924;11.598;2023-01-28T02:14:44;100338.89;;;21.01;25.62
51999;BME280;38015;50.924;11.598;2023-01-28T02:17:12;100342.40;;;21.08;25.50
51999;BME280;38015;50.924;11.598;2023-01-28T02:19:47;100342.13;;;21.14;25.41
51999;BME280;38015;50.924;11.598;2023-01-28T02:24:54;100344.14;;;21.23;25.24
51999;BME280;38015;50.924;11.598;2023-01-28T02:27:25;100346.61;;;21.16;25.35
51999;BME280;38015;50.924;11.598;2023-01-28T02:29:49;100352.00;;;20.84;25.87
51999;BME280;38015;50.924;11.598;2023-01-28T02:32:22;100354.66;;;21.02;25.59
51999;BME280;38015;50.924;11.598;2023-01-28T02:34:49;100358.13;;;21.06;25.50
51999;BME280;38015;50.924;11.598;2023-01-28T02:37:20;100360.25;;;21.14;25.37
51999;BME280;38015;50.924;11.598;2023-01-28T02:39:48;100360.49;;;21.17;25.32
51999;BME280;38015;50.924;11.598;2023-01-28T02:42:21;100363.14;;;21.10;25.45
51999;BME280;38015;50.924;11.598;2023-01-28T02:44:49;100364.18;;;21.12;25.41
51999;BME280;38015;50.924;11.598;2023-01-28T02:47:18;100360.66;;;21.05;25.51
51999;BME280;38015;50.924;11.598;2023-01-28T02:49:50;100363.90;;;21.07;25.47
51999;BME280;38015;50.924;11.598;2023-01-28T02:52:31;100359.51;;;20.97;25.64
51999;BME280;38015;50.924;11.598;2023-01-28T02:54:56;100357.00;;;21.09;25.46
51999;BME280;38015;50.924;11.598;2023-01-28T02:57:35;100356.31;;;21.12;25.42
51999;BME280;38015;50.924;11.598;2023-01-28T02:59:56;100357.66;;;21.05;25.50
51999;BME280;38015;50.924;11.598;2023-01-28T03:02:27;100359.76;;;21.19;25.29
51999;BME280;38015;50.924;11.598;2023-01-28T03:04:59;100361.91;;;21.03;25.51
51999;BME280;38015;50.924;11.598;2023-01-28T03:07:25;100362.75;;;21.21;25.25
51999;BME280;38015;50.924;11.598;2023-01-28T03:09:54;100359.75;;;21.02;25.56
51999;BME280;38015;50.924;11.598;2023-01-28T03:12:25;100360.01;;;21.15;25.36
51999;BME280;38015;50.924;11.598;2023-01-28T03:14:56;100359.54;;;20.93;25.68
51999;BME280;38015;50.924;11.598;2023-01-28T03:17:29;100363.95;;;21.07;25.47
51999;BME280;38015;50.924;11.598;2023-01-28T03:19:56;100364.92;;;21.17;25.31
51999;BME280;38015;50.924;11.598;2023-01-28T03:22:27;100370.82;;;21.02;25.54
51999;BME280;38015;50.924;11.598;2023-01-28T03:24:56;100373.75;;;21.20;25.26
51999;BME280;38015;50.924;11.598;2023-01-28T03:27:32;100378.75;;;21.17;25.32
51999;BME280;38015;50.924;11.598;2023-01-28T03:30:00;100382.78;;;21.07;25.49
51999;BME280;38015;50.924;11.598;2023-01-28T03:32:27;100382.44;;;21.05;25.50
51999;BME280;38015;50.924;11.598;2023-01-28T03:34:57;100384.29;;;20.84;25.88
51999;BME280;38015;50.924;11.598;2023-01-28T03:37:28;100384.92;;;21.04;25.53
51999;BME280;38015;50.924;11.598;2023-01-28T03:40:04;100385.20;;;21.11;25.40
51999;BME280;38015;50.924;11.598;2023-01-28T03:42:30;100387.07;;;20.94;25.72
51999;BME280;38015;50.924;11.598;2023-01-28T03:45:00;100389.57;;;21.11;25.43
51999;BME280;38015;50.924;11.598;2023-01-28T03:47:31;100390.87;;;21.09;25.43
51999;BME280;38015;50.924;11.598;2023-01-28T03:50:01;100391.41;;;21.10;25.43
51999;BME280;38015;50.924;11.598;2023-01-28T03:52:32;100395.03;;;20.97;25.61
51999;BME280;38015;50.924;11.598;2023-01-28T03:55:02;100392.78;;;21.00;25.58
51999;BME280;38015;50.924;11.598;2023-01-28T03:57:32;100393.09;;;21.06;25.49
51999;BME280;38015;50.924;11.598;2023-01-28T04:00:04;100393.93;;;21.06;25.50
51999;BME280;38015;50.924;11.598;2023-01-28T04:02:33;100394.98;;;21.08;25.46
51999;BME280;38015;50.924;11.598;2023-01-28T04:05:06;100400.61;;;21.16;25.32
51999;BME280;38015;50.924;11.598;2023-01-28T04:07:34;100403.06;;;21.23;25.23
51999;BME280;38015;50.924;11.598;2023-01-28T04:10:06;100405.75;;;21.09;25.48
51999;BME280;38015;50.924;11.598;2023-01-28T04:12:35;100404.36;;;20.92;25.74
51999;BME280;38015;50.924;11.598;2023-01-28T04:15:07;100401.64;;;21.00;25.61
51999;BME280;38015;50.924;11.598;2023-01-28T04:17:36;100400.99;;;21.15;25.35
51999;BME280;38015;50.924;11.598;2023-01-28T04:20:09;100401.35;;;21.00;25.57
51999;BME280;38015;50.924;11.598;2023-01-28T04:22:37;100404.19;;;21.04;25.53
51999;BME280;38015;50.924;11.598;2023-01-28T04:25:08;100403.63;;;21.16;25.33
51999;BME280;38015;50.924;11.598;2023-01-28T04:27:40;100404.36;;;21.17;25.30
51999;BME280;38015;50.924;11.598;2023-01-28T04:30:10;100402.86;;;21.15;25.35
51999;BME280;38015;50.924;11.598;2023-01-28T04:32:39;100403.14;;;21.12;25.40
51999;BME280;38015;50.924;11.598;2023-01-28T04:35:10;100405.05;;;21.13;25.37
51999;BME280;38015;50.924;11.598;2023-01-28T04:37:41;100406.55;;;21.14;25.36
51999;BME280;38015;50.924;11.598;2023-01-28T04:40:12;100409.37;;;20.76;25.94
51999;BME280;38015;50.924;11.598;2023-01-28T04:42:51;100408.72;;;20.82;25.89
51999;BME280;38015;50.924;11.598;2023-01-28T04:45:12;100408.79;;;21.01;25.56
51999;BME280;38015;50.924;11.598;2023-01-28T04:47:42;100410.01;;;20.88;25.72
51999;BME280;38015;50.924;11.598;2023-01-28T04:50:13;100408.70;;;21.01;25.53
51999;BME280;38015;50.924;11.598;2023-01-28T04:52:43;100411.84;;;21.11;25.42
51999;BME280;38015;50.924;11.598;2023-01-28T04:55:14;100414.15;;;21.03;25.51
51999;BME280;38015;50.924;11.598;2023-01-28T04:57:45;100416.07;;;20.73;25.99
51999;BME280;38015;50.924;11.598;2023-01-28T05:00:16;100419.71;;;21.11;25.39
51999;BME280;38015;50.924;11.598;2023-01-28T05:02:47;100424.33;;;21.01;25.55
51999;BME280;38015;50.924;11.598;2023-01-28T05:05:16;100427.45;;;20.76;25.93
51999;BME280;38015;50.924;11.598;2023-01-28T05:07:51;100426.40;;;21.08;25.46
51999;BME280;38015;50.924;11.598;2023-01-28T05:10:17;100426.37;;;21.11;25.38
51999;BME280;38015;50.924;11.598;2023-01-28T05:12:48;100427.99;;;20.95;25.64
51999;BME280;38015;50.924;11.598;2023-01-28T05:15:19;100427.47;;;21.13;25.36
51999;BME280;38015;50.924;11.598;2023-01-28T05:17:49;100430.36;;;20.88;25.74
51999;BME280;38015;50.924;11.598;2023-01-28T05:20:19;100429.09;;;20.76;25.93
51999;BME280;38015;50.924;11.598;2023-01-28T05:22:50;100430.37;;;20.88;25.75
51999;BME280;38015;50.924;11.598;2023-01-28T05:25:20;100429.86;;;21.07;25.47
51999;BME280;38015;50.924;11.598;2023-01-28T05:27:51;100429.69;;;21.08;25.45
51999;BME280;38015;50.924;11.598;2023-01-28T05:30:21;100433.85;;;21.16;25.32
51999;BME280;38015;50.924;11.598;2023-01-28T05:32:54;100435.18;;;21.07;25.44
51999;BME280;38015;50.924;11.598;2023-01-28T05:35:22;100434.53;;;21.14;25.30
51999;BME280;38015;50.924;11.598;2023-01-28T05:37:53;100436.10;;;21.04;25.48
51999;BME280;38015;50.924;11.598;2023-01-28T05:40:23;100438.02;;;21.09;25.40
51999;BME280;38015;50.924;11.598;2023-01-28T05:42:54;100441.05;;;21.18;25.24
51999;BME280;38015;50.924;11.598;2023-01-28T05:45:25;100446.83;;;21.13;25.31
51999;BME280;38015;50.924;11.598;2023-01-28T05:47:55;100448.04;;;21.15;25.29
51999;BME280;38015;50.924;11.598;2023-01-28T05:50:25;100444.06;;;21.13;25.33
51999;BME280;38015;50.924;11.598;2023-01-28T05:52:56;100448.22;;;21.15;25.28
51999;BME280;38015;50.924;11.598;2023-01-28T05:55:27;100451.66;;;20.80;25.85
51999;BME280;38015;50.924;11.598;2023-01-28T05:57:59;100454.42;;;21.14;25.29
51999;BME280;38015;50.924;11.598;2023-01-28T06:00:27;100461.44;;;21.07;25.40
51999;BME280;38015;50.924;11.598;2023-01-28T06:02:58;100461.10;;;20.97;25.57
51999;BME280;38015;50.924;11.598;2023-01-28T06:05:28;100464.14;;;21.06;25.42
51999;BME280;38015;50.924;11.598;2023-01-28T06:07:59;100469.05;;;21.08;25.40
51999;BME280;38015;50.924;11.598;2023-01-28T06:10:30;100475.07;;;21.10;25.36
51999;BME280;38015;50.924;11.598;2023-01-28T06:13:00;100476.18;;;21.11;25.37
51999;BME280;38015;50.924;11.598;2023-01-28T06:15:31;100475.97;;;20.96;25.58
51999;BME280;38015;50.924;11.598;2023-01-28T06:18:01;100478.07;;;20.75;25.87
51999;BME280;38015;50.924;11.598;2023-01-28T06:20:32;100477.37;;;21.00;25.50
51999;BME280;38015;50.924;11.598;2023-01-28T06:23:02;100481.55;;;21.11;25.33
51999;BME280;38015;50.924;11.598;2023-01-28T06:25:33;100483.32;;;20.87;25.70
51999;BME280;38015;50.924;11.598;2023-01-28T06:28:03;100484.67;;;21.01;25.49
51999;BME280;38015;50.924;11.598;2023-01-28T06:30:34;100484.65;;;21.11;25.32
51999;BME280;38015;50.924;11.598;2023-01-28T06:33:04;100486.61;;;21.08;25.37
51999;BME280;38015;50.924;11.598;2023-01-28T06:35:35;100489.64;;;21.21;25.17
51999;BME280;38015;50.924;11.598;2023-01-28T06:38:05;100494.77;;;21.02;25.46
51999;BME280;38015;50.924;11.598;2023-01-28T06:40:36;100494.99;;;21.07;25.37
51999;BME280;38015;50.924;11.598;2023-01-28T06:43:07;100495.12;;;21.05;25.42
51999;BME280;38015;50.924;11.598;2023-01-28T06:45:37;100498.60;;;20.91;25.67
51999;BME280;38015;50.924;11.598;2023-01-28T06:48:07;100501.32;;;20.90;25.63
51999;BME280;38015;50.924;11.598;2023-01-28T06:50:38;100502.00;;;21.05;25.41
51999;BME280;38015;50.924;11.598;2023-01-28T06:53:10;100503.09;;;20.77;25.85
51999;BME280;38015;50.924;11.598;2023-01-28T06:55:39;100506.86;;;20.74;25.89
51999;BME280;38015;50.924;11.598;2023-01-28T06:58:10;100509.03;;;20.89;25.65
51999;BME280;38015;50.924;11.598;2023-01-28T07:00:40;100512.65;;;21.10;25.33
51999;BME280;38015;50.924;11.598;2023-01-28T07:03:11;100511.51;;;20.91;25.59
51999;BME280;38015;50.924;11.598;2023-01-28T07:05:41;100510.62;;;21.10;25.32
51999;BME280;38015;50.924;11.598;2023-01-28T07:08:12;100511.21;;;21.05;25.39
51999;BME280;38015;50.924;11.598;2023-01-28T07:10:43;100512.48;;;21.08;25.35
51999;BME280;38015;50.924;11.598;2023-01-28T07:13:13;100515.22;;;21.13;25.24
51999;BME280;38015;50.924;11.598;2023-01-28T07:15:43;100518.76;;;20.98;25.51
51999;BME280;38015;50.924;11.598;2023-01-28T07:18:14;100518.91;;;21.07;25.40
51999;BME280;38015;50.924;11.598;2023-01-28T07:20:44;100522.92;;;20.95;25.55
51999;BME280;38015;50.924;11.598;2023-01-28T07:23:15;100525.16;;;20.98;25.49
51999;BME280;38015;50.924;11.598;2023-01-28T07:25:45;100524.64;;;21.00;25.50
51999;BME280;38015;50.924;11.598;2023-01-28T07:28:16;100523.71;;;20.97;25.48
51999;BME280;38015;50.924;11.598;2023-01-28T07:30:48;100518.97;;;21.08;25.33
51999;BME280;38015;50.924;11.598;2023-01-28T07:33:17;100516.17;;;21.09;25.30
51999;BME280;38015;50.924;11.598;2023-01-28T07:35:48;100515.79;;;20.99;25.46
51999;BME280;38015;50.924;11.598;2023-01-28T07:38:18;100512.99;;;21.14;25.23
51999;BME280;38015;50.924;11.598;2023-01-28T07:40:49;100514.26;;;20.95;25.53
51999;BME280;38015;50.924;11.598;2023-01-28T07:43:20;100517.25;;;21.03;25.40
51999;BME280;38015;50.924;11.598;2023-01-28T07:45:50;100525.53;;;20.83;25.66
51999;BME280;38015;50.924;11.598;2023-01-28T07:48:20;100529.24;;;20.89;25.62
51999;BME280;38015;50.924;11.598;2023-01-28T07:50:51;100528.45;;;21.02;25.43
51999;BME280;38015;50.924;11.598;2023-01-28T07:53:22;100531.43;;;20.93;25.56
51999;BME280;38015;50.924;11.598;2023-01-28T07:58:22;100532.48;;;21.07;25.32
51999;BME280;38015;50.924;11.598;2023-01-28T08:00:57;100533.33;;;21.12;25.22
51999;BME280;38015;50.924;11.598;2023-01-28T08:03:24;100535.78;;;21.10;25.26
51999;BME280;38015;50.924;11.598;2023-01-28T08:05:55;100538.27;;;21.10;25.27
51999;BME280;38015;50.924;11.598;2023-01-28T08:08:25;100543.43;;;20.95;25.50
51999;BME280;38015;50.924;11.598;2023-01-28T08:10:55;100542.08;;;20.86;25.64
51999;BME280;38015;50.924;11.598;2023-01-28T08:13:25;100539.41;;;21.03;25.39
51999;BME280;38015;50.924;11.598;2023-01-28T08:15:56;100541.26;;;21.02;25.39
51999;BME280;38015;50.924;11.598;2023-01-28T08:18:28;100549.96;;;20.96;25.48
51999;BME280;38015;50.924;11.598;2023-01-28T08:20:58;100555.01;;;20.96;25.49
51999;BME280;38015;50.924;11.598;2023-01-28T08:23:27;100552.25;;;20.95;25.50
51999;BME280;38015;50.924;11.598;2023-01-28T08:25:58;100548.31;;;20.84;25.63
51999;BME280;38015;50.924;11.598;2023-01-28T08:28:28;100544.21;;;21.07;25.30
51999;BME280;38015;50.924;11.598;2023-01-28T08:30:59;100546.55;;;21.02;25.37
51999;BME280;38015;50.924;11.598;2023-01-28T08:33:30;100546.08;;;21.07;25.30
51999;BME280;38015;50.924;11.598;2023-01-28T08:36:02;100552.86;;;21.09;25.29
51999;BME280;38015;50.924;11.598;2023-01-28T08:38:31;100556.50;;;20.79;25.72
51999;BME280;38015;50.924;11.598;2023-01-28T08:41:01;100556.52;;;21.12;25.21
51999;BME280;38015;50.924;11.598;2023-01-28T08:43:31;100558.94;;;21.16;25.15
51999;BME280;38015;50.924;11.598;2023-01-28T08:46:04;100559.24;;;20.97;25.45
51999;BME280;38015;50.924;11.598;2023-01-28T08:48:32;100561.33;;;20.97;25.45
51999;BME280;38015;50.924;11.598;2023-01-28T08:51:04;100558.78;;;20.89;25.57
51999;BME280;38015;50.924;11.598;2023-01-28T08:53:34;100555.64;;;21.14;25.14
51999;BME280;38015;50.924;11.598;2023-01-28T08:56:05;100557.24;;;21.03;25.35
51999;BME280;38015;50.924;11.598;2023-01-28T08:58:35;100558.65;;;20.92;25.50
51999;BME280;38015;50.924;11.598;2023-01-28T09:01:05;100562.59;;;20.90;25.51
51999;BME280;38015;50.924;11.598;2023-01-28T09:03:36;100567.79;;;20.85;25.59
51999;BME280;38015;50.924;11.598;2023-01-28T09:06:06;100568.94;;;21.06;25.29
51999;BME280;38015;50.924;11.598;2023-01-28T09:08:37;100565.34;;;21.13;25.14
51999;BME280;38015;50.924;11.598;2023-01-28T09:11:07;100565.82;;;21.17;25.08
51999;BME280;38015;50.924;11.598;2023-01-28T09:13:38;100568.51;;;21.12;25.14
51999;BME280;38015;50.924;11.598;2023-01-28T09:16:08;100571.58;;;21.07;25.22
51999;BME280;38015;50.924;11.598;2023-01-28T09:18:40;100567.89;;;21.19;25.04
51999;BME280;38015;50.924;11.598;2023-01-28T09:21:09;100569.28;;;21.14;25.12
51999;BME280;38015;50.924;11.598;2023-01-28T09:23:40;100574.24;;;21.15;25.10
51999;BME280;38015;50.924;11.598;2023-01-28T09:26:12;100577.77;;;21.02;25.30
51999;BME280;38015;50.924;11.598;2023-01-28T09:28:41;100575.22;;;21.06;25.20
51999;BME280;38015;50.924;11.598;2023-01-28T09:31:11;100576.19;;;20.96;25.39
51999;BME280;38015;50.924;11.598;2023-01-28T09:33:42;100583.57;;;21.07;25.21
51999;BME280;38015;50.924;11.598;2023-01-28T09:36:12;100588.90;;;20.74;25.73
51999;BME280;38015;50.924;11.598;2023-01-28T09:38:43;100586.73;;;20.83;25.59
51999;BME280;38015;50.924;11.598;2023-01-28T09:41:25;100587.43;;;20.88;25.50
51999;BME280;38015;50.924;11.598;2023-01-28T09:43:55;100592.75;;;21.12;25.13
51999;BME280;38015;50.924;11.598;2023-01-28T09:46:15;100595.57;;;21.06;25.22
51999;BME280;38015;50.924;11.598;2023-01-28T09:48:48;100593.80;;;20.94;25.44
51999;BME280;38015;50.924;11.598;2023-01-28T09:51:27;100598.88;;;21.07;25.21
51999;BME280;38015;50.924;11.598;2023-01-28T09:53:50;100603.67;;;21.16;25.05
51999;BME280;38015;50.924;11.598;2023-01-28T09:56:24;100606.00;;;21.20;24.99
51999;BME280;38015;50.924;11.598;2023-01-28T09:58:47;100607.06;;;21.12;25.12
51999;BME280;38015;50.924;11.598;2023-01-28T10:03:54;100607.21;;;20.94;25.40
51999;BME280;38015;50.924;11.598;2023-01-28T10:06:26;100608.24;;;20.86;25.52
51999;BME280;38015;50.924;11.598;2023-01-28T10:09:00;100613.07;;;21.11;25.14
51999;BME280;38015;50.924;11.598;2023-01-28T10:11:26;100617.22;;;21.10;25.15
51999;BME280;38015;50.924;11.598;2023-01-28T10:13:58;100617.11;;;21.01;25.26
51999;BME280;38015;50.924;11.598;2023-01-28T10:16:29;100615.27;;;21.05;25.20
51999;BME280;38015;50.924;11.598;2023-01-28T10:18:56;100613.76;;;20.98;25.27
51999;BME280;38015;50.924;11.598;2023-01-28T10:21:27;100612.18;;;21.15;25.04
51999;BME280;38015;50.924;11.598;2023-01-28T10:23:58;100604.78;;;21.08;25.14
51999;BME280;38015;50.924;11.598;2023-01-28T10:26:25;100605.24;;;21.17;25.02
51999;BME280;38015;50.924;11.598;2023-01-28T10:28:56;100612.73;;;21.13;25.07
51999;BME280;38015;50.924;11.598;2023-01-28T10:31:36;100616.67;;;21.01;25.23
51999;BME280;38015;50.924;11.598;2023-01-28T10:33:54;100615.28;;;21.17;25.01
51999;BME280;38015;50.924;11.598;2023-01-28T10:36:25;100614.79;;;21.11;25.08
51999;BME280;38015;50.924;11.598;2023-01-28T10:38:56;100616.47;;;21.06;25.15
51999;BME280;38015;50.924;11.598;2023-01-28T10:41:26;100616.69;;;20.94;25.29
51999;BME280;38015;50.924;11.598;2023-01-28T10:43:57;100611.68;;;21.16;24.96
51999;BME280;38015;50.924;11.598;2023-01-28T10:46:29;100608.92;;;21.02;25.20
51999;BME280;38015;50.924;11.598;2023-01-28T10:49:04;100613.59;;;21.17;24.96
51999;BME280;38015;50.924;11.598;2023-01-28T10:51:32;100620.03;;;21.06;25.12
51999;BME280;38015;50.924;11.598;2023-01-28T10:53:59;100613.29;;;20.91;25.37
51999;BME280;38015;50.924;11.598;2023-01-28T10:56:31;100610.43;;;20.81;25.46
51999;BME280;38015;50.924;11.598;2023-01-28T10:59:02;100614.05;;;21.13;24.99
51999;BME280;38015;50.924;11.598;2023-01-28T11:04:01;100608.06;;;21.11;25.00
51999;BME280;38015;50.924;11.598;2023-01-28T11:06:31;100610.77;;;20.81;25.45
51999;BME280;38015;50.924;11.598;2023-01-28T11:09:02;100610.40;;;21.16;24.94
51999;BME280;38015;50.924;11.598;2023-01-28T11:11:32;100607.33;;;21.09;25.04
51999;BME280;38015;50.924;11.598;2023-01-28T11:14:03;100604.34;;;21.04;25.08
51999;BME280;38015;50.924;11.598;2023-01-28T11:16:33;100604.62;;;21.20;24.86
51999;BME280;38015;50.924;11.598;2023-01-28T11:19:05;100606.28;;;21.23;24.80
51999;BME280;38015;50.924;11.598;2023-01-28T11:21:34;100604.89;;;21.20;24.82
51999;BME280;38015;50.924;11.598;2023-01-28T11:24:13;100610.47;;;21.20;24.84
51999;BME280;38015;50.924;11.598;2023-01-28T11:26:37;100605.32;;;21.15;24.92
51999;BME280;38015;50.924;11.598;2023-01-28T11:31:42;100607.71;;;21.10;24.97
51999;BME280;38015;50.924;11.598;2023-01-28T11:34:07;100611.06;;;20.93;25.24
51999;BME280;38015;50.924;11.598;2023-01-28T11:39:16;100600.60;;;20.99;25.17
51999;BME280;38015;50.924;11.598;2023-01-28T11:41:39;100611.92;;;21.21;24.81
51999;BME280;38015;50.924;11.598;2023-01-28T11:44:15;100609.02;;;21.13;24.93
51999;BME280;38015;50.924;11.598;2023-01-28T11:46:54;100602.74;;;20.89;25.29
51999;BME280;38015;50.924;11.598;2023-01-28T11:49:18;100596.94;;;21.10;24.98
51999;BME280;38015;50.924;11.598;2023-01-28T11:51:50;100602.10;;;21.19;24.81
51999;BME280;38015;50.924;11.598;2023-01-28T11:54:25;100602.62;;;21.00;25.13
51999;BME280;38015;50.924;11.598;2023-01-28T11:56:56;100595.48;;;21.08;25.01
51999;BME280;38015;50.924;11.598;2023-01-28T11:59:26;100599.02;;;21.00;25.14
51999;BME280;38015;50.924;11.598;2023-01-28T12:01:50;100599.08;;;21.14;24.89
51999;BME280;38015;50.924;11.598;2023-01-28T12:04:22;100597.02;;;21.14;24.88
51999;BME280;38015;50.924;11.598;2023-01-28T12:06:53;100594.23;;;21.10;24.95
51999;BME280;38015;50.924;11.598;2023-01-28T12:09:20;100599.01;;;21.12;24.90
51999;BME280;38015;50.924;11.598;2023-01-28T12:11:57;100596.41;;;21.06;25.01
51999;BME280;38015;50.924;11.598;2023-01-28T12:14:24;100591.73;;;21.00;25.06
51999;BME280;38015;50.924;11.598;2023-01-28T12:17:00;100587.79;;;21.05;24.99
51999;BME280;38015;50.924;11.598;2023-01-28T12:19:30;100589.36;;;21.20;24.75
51999;BME280;38015;50.924;11.598;2023-01-28T12:22:01;100589.37;;;21.10;24.93
51999;BME280;38015;50.924;11.598;2023-01-28T12:24:31;100583.95;;;21.06;24.97
51999;BME280;38015;50.924;11.598;2023-01-28T12:26:54;100588.78;;;21.04;25.02
51999;BME280;38015;50.924;11.598;2023-01-28T12:29:29;100589.10;;;20.91;25.17
51999;BME280;38015;50.924;11.598;2023-01-28T12:32:02;100590.63;;;20.96;25.13
51999;BME280;38015;50.924;11.598;2023-01-28T12:36:54;100587.62;;;21.17;24.79
51999;BME280;38015;50.924;11.598;2023-01-28T12:39:29;100585.11;;;21.22;24.69
51999;BME280;38015;50.924;11.598;2023-01-28T12:42:00;100583.63;;;21.14;24.81
51999;BME280;38015;50.924;11.598;2023-01-28T12:44:29;100581.23;;;21.16;24.77
51999;BME280;38015;50.924;11.598;2023-01-28T12:46:55;100585.62;;;21.19;24.74
51999;BME280;38015;50.924;11.598;2023-01-28T12:49:27;100581.75;;;21.11;24.85
51999;BME280;38015;50.924;11.598;2023-01-28T12:52:00;100581.85;;;20.93;25.14
51999;BME280;38015;50.924;11.598;2023-01-28T12:54:27;100581.64;;;21.09;24.88
51999;BME280;38015;50.924;11.598;2023-01-28T12:56:55;100577.18;;;21.11;24.85
51999;BME280;38015;50.924;11.598;2023-01-28T12:59:29;100577.85;;;21.04;24.93
51999;BME280;38015;50.924;11.598;2023-01-28T13:02:12;100573.64;;;21.04;24.96
51999;BME280;38015;50.924;11.598;2023-01-28T13:04:33;100575.07;;;21.09;24.84
51999;BME280;38015;50.924;11.598;2023-01-28T13:07:01;100578.62;;;21.01;25.00
51999;BME280;38015;50.924;11.598;2023-01-28T13:09:27;100575.24;;;21.10;24.86
51999;BME280;38015;50.924;11.598;2023-01-28T13:11:58;100580.62;;;21.13;24.77
51999;BME280;38015;50.924;11.598;2023-01-28T13:14:30;100580.01;;;21.02;24.97
51999;BME280;38015;50.924;11.598;2023-01-28T13:19:36;100586.91;;;21.09;24.83